Time;durP1;ratioP1;P1;durP2;ratioP2;P2;SDS_P1;SDS_P2;PMS_P1;PMS_P2;Temp;Humidity;BMP_temperature;BMP_pressure;BME280_temperature;BME280_humidity;BME280_pressure;Samples;Min_cycle;Max_cycle;Signal;HPM_P1;HPM_P2
2023/05/28 00:00:26;;;;;;;9.63;4.80;;;13.70;59.50;;;;;;5214590;28;20274;-46
2023/05/28 00:02:57;;;;;;;9.93;4.77;;;13.70;60.00;;;;;;5217872;28;20190;-45
2023/05/28 00:05:28;;;;;;;11.57;4.67;;;13.60;60.40;;;;;;5214841;28;20537;-47
2023/05/28 00:08:00;;;;;;;14.93;4.27;;;13.60;61.30;;;;;;5214928;28;20260;-45
2023/05/28 00:10:31;;;;;;;8.60;4.20;;;13.50;61.80;;;;;;5218719;28;20248;-46
2023/05/28 00:13:01;;;;;;;5.03;3.60;;;13.50;62.50;;;;;;5221154;28;20454;-45
2023/05/28 00:15:32;;;;;;;5.60;3.87;;;13.50;63.30;;;;;;5215929;28;20203;-45
2023/05/28 00:18:03;;;;;;;4.93;4.47;;;13.40;64.10;;;;;;5217859;28;20189;-46
2023/05/28 00:20:34;;;;;;;13.10;4.70;;;13.40;65.10;;;;;;5216906;28;20571;-45
2023/05/28 00:23:05;;;;;;;7.77;4.30;;;13.30;66.10;;;;;;5220804;28;20465;-45
2023/05/28 00:25:36;;;;;;;16.07;4.90;;;13.30;67.10;;;;;;5213162;28;20655;-45
2023/05/28 00:28:07;;;;;;;10.33;4.50;;;13.30;68.10;;;;;;5217548;28;20468;-45
2023/05/28 00:30:37;;;;;;;11.90;4.50;;;13.20;69.40;;;;;;5223925;28;20199;-45
2023/05/28 00:33:08;;;;;;;5.20;4.70;;;13.20;70.50;;;;;;5223957;28;20187;-45
2023/05/28 00:35:38;;;;;;;8.83;4.93;;;13.20;71.60;;;;;;5220356;28;20294;-45
2023/05/28 00:38:09;;;;;;;5.43;3.73;;;13.20;72.60;;;;;;5224320;28;20191;-44
2023/05/28 00:40:44;;;;;;;16.60;4.30;;;13.10;73.60;;;;;;5229314;28;20237;-46
2023/05/28 00:43:15;;;;;;;6.83;4.13;;;13.10;74.70;;;;;;5223336;28;20203;-45
2023/05/28 00:45:48;;;;;;;7.00;4.37;;;13.10;75.80;;;;;;5221241;28;20778;-46
2023/05/28 00:48:19;;;;;;;13.27;4.70;;;13.00;76.80;;;;;;5218889;28;20457;-46
2023/05/28 00:50:50;;;;;;;13.13;5.30;;;13.00;78.00;;;;;;5225689;28;20483;-44
2023/05/28 00:53:22;;;;;;;7.67;4.07;;;13.00;79.40;;;;;;5217876;28;20440;-46
2023/05/28 00:55:53;;;;;;;6.37;3.80;;;12.90;80.70;;;;;;5227292;28;20681;-46
2023/05/28 00:58:26;;;;;;;13.27;4.67;;;12.90;82.00;;;;;;5222916;28;20437;-44
2023/05/28 01:00:57;;;;;;;9.90;4.60;;;12.90;83.90;;;;;;5230300;28;20201;-45
2023/05/28 01:03:28;;;;;;;8.37;4.20;;;12.90;84.50;;;;;;5230432;28;20513;-44
2023/05/28 01:06:01;;;;;;;7.90;4.50;;;12.80;85.60;;;;;;5223709;28;20816;-46
2023/05/28 01:08:31;;;;;;;7.33;4.83;;;12.80;86.90;;;;;;5220947;28;20221;-45
2023/05/28 01:11:02;;;;;;;8.10;4.90;;;12.80;88.10;;;;;;5215172;28;21035;-45
2023/05/28 01:13:34;;;;;;;9.70;4.57;;;12.80;89.20;;;;;;5220839;28;20191;-47
2023/05/28 01:16:05;;;;;;;12.63;4.30;;;12.70;90.10;;;;;;5216836;28;20477;-45
2023/05/28 01:18:44;;;;;;;5.77;4.33;;;12.70;90.70;;;;;;5223288;28;20892;-45
2023/05/28 01:21:15;;;;;;;13.87;4.63;;;12.60;91.30;;;;;;5222172;28;20191;-46
2023/05/28 01:23:47;;;;;;;17.13;5.17;;;12.60;91.80;;;;;;5216645;28;20441;-46
2023/05/28 01:26:18;;;;;;;6.00;4.57;;;12.60;92.30;;;;;;5222349;28;20436;-45
2023/05/28 01:28:49;;;;;;;11.80;5.73;;;12.50;92.70;;;;;;5219596;28;20465;-45
2023/05/28 01:31:20;;;;;;;12.23;4.57;;;12.50;93.10;;;;;;5210221;28;20179;-44
2023/05/28 01:33:51;;;;;;;18.03;4.60;;;12.50;93.60;;;;;;5199772;28;21035;-44
2023/05/28 01:36:31;;;;;;;6.60;4.30;;;12.50;93.90;;;;;;5214206;28;20184;-45
2023/05/28 01:39:02;;;;;;;9.30;4.83;;;12.40;94.40;;;;;;5217640;28;20255;-44
2023/05/28 01:41:34;;;;;;;6.70;4.10;;;12.40;94.80;;;;;;5214235;28;20518;-45
2023/05/28 01:44:08;;;;;;;7.63;4.50;;;12.40;95.10;;;;;;5211883;28;20602;-45
2023/05/28 01:46:41;;;;;;;10.17;5.10;;;12.40;95.50;;;;;;5213065;28;20480;-44
2023/05/28 01:49:12;;;;;;;10.20;4.23;;;12.40;95.80;;;;;;5210539;28;20523;-44
2023/05/28 01:51:43;;;;;;;6.90;4.23;;;12.40;96.00;;;;;;5208750;28;20532;-45
2023/05/28 01:54:14;;;;;;;9.30;4.70;;;12.30;96.20;;;;;;5214568;28;20446;-45
2023/05/28 01:56:45;;;;;;;12.23;5.20;;;12.30;96.60;;;;;;5214622;28;20443;-45
2023/05/28 01:59:16;;;;;;;5.40;4.83;;;12.20;97.00;;;;;;5203684;28;20295;-45
2023/05/28 02:01:46;;;;;;;10.07;4.30;;;12.20;97.40;;;;;;5209885;28;20214;-45
2023/05/28 02:04:17;;;;;;;11.87;4.67;;;12.20;97.60;;;;;;5215146;28;20210;-44
2023/05/28 02:06:48;;;;;;;10.27;5.63;;;12.10;97.90;;;;;;5199230;28;20634;-45
2023/05/28 02:09:18;;;;;;;9.70;4.77;;;12.10;98.30;;;;;;5212846;28;20202;-46
2023/05/28 02:11:49;;;;;;;10.30;4.93;;;12.10;98.70;;;;;;5212939;28;20179;-46
2023/05/28 02:14:21;;;;;;;8.30;4.40;;;12.00;98.90;;;;;;5220185;28;20707;-46
2023/05/28 02:16:54;;;;;;;7.53;4.50;;;12.00;99.20;;;;;;5217199;28;20199;-46
2023/05/28 02:19:25;;;;;;;15.73;4.90;;;11.90;99.30;;;;;;5217349;28;21017;-45
2023/05/28 02:21:56;;;;;;;8.83;4.50;;;11.90;99.50;;;;;;5220999;28;20449;-45
2023/05/28 02:24:26;;;;;;;9.00;4.83;;;11.90;99.70;;;;;;5217030;28;20186;-45
2023/05/28 02:26:57;;;;;;;9.70;5.23;;;11.90;99.90;;;;;;5218745;28;20211;-52
2023/05/28 02:29:27;;;;;;;6.60;4.20;;;11.90;99.90;;;;;;5218573;28;20218;-46
2023/05/28 02:31:59;;;;;;;20.80;5.67;;;11.80;99.90;;;;;;5210512;28;20214;-45
2023/05/28 02:34:31;;;;;;;10.77;4.97;;;11.80;99.90;;;;;;5217462;28;20667;-45
2023/05/28 02:37:02;;;;;;;7.47;4.43;;;11.80;99.90;;;;;;5216898;28;20870;-45
2023/05/28 02:39:33;;;;;;;7.63;4.50;;;11.80;99.90;;;;;;5220201;28;20461;-46
2023/05/28 02:42:03;;;;;;;7.13;4.47;;;11.80;99.90;;;;;;5221751;28;20450;-45
2023/05/28 02:44:34;;;;;;;11.30;4.10;;;11.80;99.90;;;;;;5218938;28;20180;-44
2023/05/28 02:47:05;;;;;;;11.93;4.77;;;11.80;99.90;;;;;;5219085;28;20186;-46
2023/05/28 02:49:35;;;;;;;7.27;4.60;;;11.70;99.90;;;;;;5217205;28;20206;-45
2023/05/28 02:52:06;;;;;;;6.27;4.87;;;11.70;99.90;;;;;;5218781;28;20274;-45
2023/05/28 02:54:36;;;;;;;9.80;4.17;;;11.60;99.90;;;;;;5218548;28;20749;-46
2023/05/28 02:57:07;;;;;;;8.60;3.80;;;11.60;99.90;;;;;;5224018;28;20179;-44
2023/05/28 02:59:38;;;;;;;7.50;5.27;;;11.60;99.90;;;;;;5223471;28;20214;-44
2023/05/28 03:02:08;;;;;;;8.93;4.40;;;11.60;99.90;;;;;;5217490;28;20687;-45
2023/05/28 03:04:39;;;;;;;9.10;5.37;;;11.60;99.90;;;;;;5222912;28;20191;-45
2023/05/28 03:07:09;;;;;;;5.37;4.87;;;11.60;99.90;;;;;;5228439;28;20262;-45
2023/05/28 03:09:41;;;;;;;8.93;4.77;;;11.60;99.90;;;;;;5221112;28;20219;-46
2023/05/28 03:12:11;;;;;;;12.80;4.17;;;11.60;99.90;;;;;;5217013;28;20686;-44
2023/05/28 03:14:42;;;;;;;7.90;4.57;;;11.60;99.90;;;;;;5220269;28;20517;-45
2023/05/28 03:17:12;;;;;;;5.67;4.30;;;11.60;99.90;;;;;;5218524;28;20214;-47
2023/05/28 03:19:43;;;;;;;9.37;4.90;;;11.70;99.90;;;;;;5221064;28;20207;-46
2023/05/28 03:22:14;;;;;;;9.67;4.83;;;11.70;99.90;;;;;;5225124;28;20194;-45
2023/05/28 03:24:44;;;;;;;11.50;4.90;;;11.70;99.90;;;;;;5217186;28;20599;-46
2023/05/28 03:27:15;;;;;;;16.23;5.20;;;11.70;99.90;;;;;;5214898;28;20253;-45
2023/05/28 03:29:45;;;;;;;10.10;4.53;;;11.70;99.90;;;;;;5221507;28;20252;-45
2023/05/28 03:32:16;;;;;;;6.17;4.30;;;11.70;99.90;;;;;;5215104;28;20223;-45
2023/05/28 03:34:47;;;;;;;8.13;5.07;;;11.80;99.90;;;;;;5218755;28;20179;-44
2023/05/28 03:37:17;;;;;;;12.43;5.17;;;11.80;99.90;;;;;;5218252;28;20179;-46
2023/05/28 03:39:48;;;;;;;7.10;4.63;;;11.90;99.90;;;;;;5213503;28;20210;-46
2023/05/28 03:42:19;;;;;;;11.73;4.37;;;11.80;99.90;;;;;;5212027;28;20191;-45
2023/05/28 03:44:50;;;;;;;8.97;4.27;;;11.90;99.90;;;;;;5216927;28;20204;-45
2023/05/28 03:47:21;;;;;;;11.93;5.60;;;11.90;99.90;;;;;;5217269;28;20441;-45
2023/05/28 03:49:52;;;;;;;6.47;4.43;;;11.90;99.90;;;;;;5217302;28;20301;-45
2023/05/28 03:52:23;;;;;;;8.77;4.50;;;12.00;99.90;;;;;;5217184;28;20537;-46
2023/05/28 03:54:53;;;;;;;8.63;5.07;;;12.00;99.90;;;;;;5210604;28;20186;-46
2023/05/28 03:57:24;;;;;;;6.70;4.37;;;12.10;99.90;;;;;;5209112;28;20252;-45
2023/05/28 03:59:56;;;;;;;13.10;5.40;;;12.10;99.90;;;;;;5216652;28;20199;-45
2023/05/28 04:02:27;;;;;;;12.97;5.33;;;12.10;99.90;;;;;;5209247;28;20246;-45
2023/05/28 04:04:57;;;;;;;17.10;5.77;;;12.20;99.90;;;;;;5215477;28;20437;-45
2023/05/28 04:07:28;;;;;;;8.17;4.40;;;12.20;99.90;;;;;;5214754;28;20221;-44
2023/05/28 04:09:59;;;;;;;6.47;3.83;;;12.20;99.90;;;;;;5209085;28;20895;-45
2023/05/28 04:12:29;;;;;;;11.20;4.80;;;12.40;99.90;;;;;;5213383;28;20190;-45
2023/05/28 04:15:00;;;;;;;8.03;4.57;;;12.50;99.90;;;;;;5215000;28;20969;-45
2023/05/28 04:17:31;;;;;;;7.43;4.13;;;12.60;99.70;;;;;;5210809;28;20187;-47
2023/05/28 04:20:05;;;;;;;6.53;4.37;;;12.80;99.00;;;;;;5212173;28;20195;-45
2023/05/28 04:22:36;;;;;;;9.93;4.20;;;13.00;98.40;;;;;;5211704;28;20634;-45
2023/05/28 04:25:07;;;;;;;5.80;4.13;;;13.20;97.30;;;;;;5197778;28;20472;-46
2023/05/28 04:27:37;;;;;;;15.27;4.80;;;13.30;96.30;;;;;;5215482;28;20651;-45
2023/05/28 04:30:09;;;;;;;13.13;4.60;;;13.40;96.10;;;;;;5209326;28;20469;-45
2023/05/28 04:32:40;;;;;;;11.77;4.10;;;13.40;95.50;;;;;;5218215;28;20207;-45
2023/05/28 04:35:10;;;;;;;6.43;4.30;;;13.50;94.90;;;;;;5213570;28;20461;-46
2023/05/28 04:37:42;;;;;;;9.83;4.23;;;13.50;94.30;;;;;;5214087;28;20248;-45
2023/05/28 04:40:12;;;;;;;5.13;4.33;;;13.60;94.20;;;;;;5213232;28;20615;-45
2023/05/28 04:42:43;;;;;;;10.90;4.07;;;13.70;94.10;;;;;;5217750;28;20503;-46
2023/05/28 04:45:14;;;;;;;6.47;4.87;;;13.90;93.50;;;;;;5217812;28;20190;-46
2023/05/28 04:47:45;;;;;;;6.13;3.37;;;14.20;92.70;;;;;;5218439;28;20215;-45
2023/05/28 04:50:16;;;;;;;18.07;4.70;;;14.80;90.40;;;;;;5217105;28;20854;-44
2023/05/28 04:52:46;;;;;;;8.73;4.23;;;15.40;86.40;;;;;;5215127;28;20452;-44
2023/05/28 04:55:17;;;;;;;5.73;4.00;;;15.80;82.10;;;;;;5219144;28;20594;-45
2023/05/28 04:57:48;;;;;;;8.73;4.60;;;16.20;78.20;;;;;;5217662;28;20206;-46
2023/05/28 05:00:20;;;;;;;12.17;3.97;;;16.60;74.50;;;;;;5221006;28;20984;-47
2023/05/28 05:02:52;;;;;;;7.60;3.90;;;17.00;70.80;;;;;;5223237;28;20230;-45
2023/05/28 05:05:23;;;;;;;9.67;4.30;;;17.50;66.00;;;;;;5212831;28;21392;-46
2023/05/28 05:07:53;;;;;;;11.73;3.90;;;18.00;62.20;;;;;;5221580;28;20437;-45
2023/05/28 05:10:24;;;;;;;4.33;3.83;;;18.60;59.40;;;;;;5219234;28;20651;-45
2023/05/28 05:12:55;;;;;;;4.70;3.50;;;19.30;56.60;;;;;;5222644;28;20189;-46
2023/05/28 05:15:26;;;;;;;6.93;4.40;;;19.70;53.60;;;;;;5216824;28;20218;-47
2023/05/28 05:17:57;;;;;;;4.43;3.90;;;20.10;52.70;;;;;;5224085;28;20182;-45
2023/05/28 05:20:29;;;;;;;4.80;2.93;;;20.50;51.50;;;;;;5219144;28;20722;-46
2023/05/28 05:22:59;;;;;;;15.50;5.03;;;21.30;49.60;;;;;;5214281;28;20218;-46
2023/05/28 05:25:30;;;;;;;4.00;3.70;;;21.80;46.80;;;;;;5216567;28;20477;-46
2023/05/28 05:28:01;;;;;;;10.97;4.20;;;22.50;44.70;;;;;;5221769;28;20217;-45
2023/05/28 05:30:32;;;;;;;6.57;3.40;;;23.80;43.20;;;;;;5218803;28;20242;-45
2023/05/28 05:33:02;;;;;;;10.50;3.60;;;24.80;40.50;;;;;;5222306;28;20469;-45
2023/05/28 05:35:33;;;;;;;4.90;3.20;;;26.00;37.90;;;;;;5222406;28;20250;-45
2023/05/28 05:38:04;;;;;;;5.67;3.40;;;27.00;36.30;;;;;;5218271;28;20190;-46
2023/05/28 05:40:35;;;;;;;6.80;2.80;;;27.70;34.50;;;;;;5219886;28;20200;-45
2023/05/28 05:43:05;;;;;;;4.30;3.20;;;28.40;32.70;;;;;;5213364;28;20190;-45
2023/05/28 05:45:36;;;;;;;7.33;3.90;;;28.70;31.10;;;;;;5217496;28;20226;-44
2023/05/28 05:48:07;;;;;;;3.47;3.10;;;29.50;30.30;;;;;;5216874;28;20183;-45
2023/05/28 05:50:51;;;;;;;3.47;2.67;;;29.70;29.90;;;;;;5219759;28;20557;-45
2023/05/28 05:53:22;;;;;;;7.73;3.23;;;30.80;29.20;;;;;;5220785;28;20178;-45
2023/05/28 05:55:53;;;;;;;6.07;3.30;;;31.60;28.00;;;;;;5216266;28;20434;-46
2023/05/28 05:58:24;;;;;;;2.87;2.23;;;32.40;27.20;;;;;;5215842;28;20455;-44
2023/05/28 06:00:54;;;;;;;3.30;2.50;;;32.90;26.60;;;;;;5217086;28;20241;-45
2023/05/28 06:03:27;;;;;;;3.03;2.70;;;33.10;26.10;;;;;;5213207;28;20193;-46
2023/05/28 06:05:58;;;;;;;3.93;2.50;;;33.40;25.70;;;;;;5204653;28;20299;-47
2023/05/28 06:08:29;;;;;;;2.80;2.60;;;33.80;25.20;;;;;;5212576;28;20489;-45
2023/05/28 06:10:59;;;;;;;5.43;3.10;;;34.10;25.20;;;;;;5205017;28;20259;-45
2023/05/28 06:13:31;;;;;;;2.47;2.27;;;34.80;24.80;;;;;;5212240;28;20179;-46
2023/05/28 06:16:02;;;;;;;2.60;2.40;;;35.30;24.20;;;;;;5214179;28;20215;-47
2023/05/28 06:18:34;;;;;;;7.13;2.42;;;35.90;23.70;;;;;;5210592;28;20206;-45
2023/05/28 06:21:04;;;;;;;2.38;2.17;;;35.70;23.30;;;;;;5209886;28;20578;-47
2023/05/28 06:23:35;;;;;;;2.55;1.73;;;35.60;22.60;;;;;;5213389;28;20198;-48
2023/05/28 06:26:06;;;;;;;5.50;2.20;;;36.00;22.10;;;;;;5210867;28;20193;-47
2023/05/28 06:28:36;;;;;;;2.10;2.00;;;36.30;21.70;;;;;;5220786;28;20619;-46
2023/05/28 06:31:07;;;;;;;17.40;2.53;;;36.50;21.70;;;;;;5219469;28;20190;-45
2023/05/28 06:33:37;;;;;;;2.40;2.20;;;36.70;20.70;;;;;;5223406;28;20189;-46
2023/05/28 06:36:09;;;;;;;5.82;2.20;;;36.20;20.90;;;;;;5222667;28;20187;-46
2023/05/28 06:38:39;;;;;;;3.90;2.53;;;36.10;21.30;;;;;;5223166;28;20663;-45
2023/05/28 06:41:10;;;;;;;4.05;2.67;;;36.30;20.80;;;;;;5218016;28;20235;-46
2023/05/28 06:43:41;;;;;;;2.63;2.42;;;36.30;20.60;;;;;;5217507;28;20217;-46
2023/05/28 06:46:12;;;;;;;5.82;2.40;;;35.50;20.20;;;;;;5217939;28;20194;-46
2023/05/28 06:48:42;;;;;;;6.28;2.42;;;35.40;21.00;;;;;;5221776;28;20644;-47
2023/05/28 06:51:13;;;;;;;7.37;2.30;;;34.60;21.40;;;;;;5218155;28;20183;-46
2023/05/28 06:53:43;;;;;;;1.63;1.53;;;34.30;21.50;;;;;;5218902;28;20178;-46
2023/05/28 06:56:14;;;;;;;2.30;1.83;;;33.60;21.70;;;;;;5208742;28;20217;-47
2023/05/28 06:58:45;;;;;;;4.03;2.63;;;34.40;21.80;;;;;;5214432;28;20208;-47
2023/05/28 07:01:15;;;;;;;3.90;2.55;;;35.40;21.00;;;;;;5217402;28;20194;-45
2023/05/28 07:03:46;;;;;;;5.97;2.27;;;35.30;20.20;;;;;;5218737;28;20195;-45
2023/05/28 07:06:17;;;;;;;5.20;2.30;;;34.40;21.00;;;;;;5220681;28;20181;-47
2023/05/28 07:08:48;;;;;;;2.33;1.87;;;34.40;20.80;;;;;;5221434;28;20202;-47
2023/05/28 07:11:18;;;;;;;2.27;1.80;;;34.70;21.10;;;;;;5220771;28;20178;-47
2023/05/28 07:13:49;;;;;;;2.90;1.80;;;35.10;20.30;;;;;;5220896;28;20534;-46
2023/05/28 07:16:20;;;;;;;4.60;1.92;;;35.60;20.30;;;;;;5201027;28;20216;-45
2023/05/28 07:18:51;;;;;;;2.10;2.00;;;36.50;19.80;;;;;;5217763;28;20199;-47
2023/05/28 07:21:21;;;;;;;2.80;1.40;;;36.60;19.90;;;;;;5220670;28;20206;-46
2023/05/28 07:23:52;;;;;;;11.02;1.77;;;37.10;19.90;;;;;;5221377;28;20186;-46
2023/05/28 07:26:23;;;;;;;5.30;2.45;;;37.80;19.30;;;;;;5216232;28;20178;-46
2023/05/28 07:28:53;;;;;;;3.13;1.90;;;37.90;18.70;;;;;;5213822;28;20214;-45
2023/05/28 07:31:24;;;;;;;1.80;1.70;;;37.50;19.00;;;;;;5215522;28;20198;-45
2023/05/28 07:33:55;;;;;;;2.25;1.80;;;37.90;18.90;;;;;;5216802;28;20545;-46
2023/05/28 07:36:25;;;;;;;2.80;1.98;;;38.80;18.40;;;;;;5221124;28;20655;-47
2023/05/28 07:38:56;;;;;;;3.22;1.98;;;39.00;18.20;;;;;;5219850;28;20202;-46
2023/05/28 07:41:27;;;;;;;3.03;1.80;;;37.60;18.00;;;;;;5219133;28;20556;-45
2023/05/28 07:43:57;;;;;;;2.22;1.95;;;36.00;18.80;;;;;;5223092;28;20186;-45
2023/05/28 07:46:28;;;;;;;3.83;2.10;;;35.20;19.30;;;;;;5220453;28;20186;-46
2023/05/28 07:48:58;;;;;;;2.78;1.42;;;35.40;19.40;;;;;;5218714;28;20214;-46
2023/05/28 07:51:30;;;;;;;2.37;1.80;;;35.70;19.20;;;;;;5219865;28;20805;-46
2023/05/28 07:54:01;;;;;;;2.08;1.58;;;35.30;19.00;;;;;;5224458;28;20252;-46
2023/05/28 07:56:31;;;;;;;2.42;1.63;;;36.00;19.10;;;;;;5217856;28;20186;-46
2023/05/28 07:59:02;;;;;;;5.03;2.07;;;36.50;18.20;;;;;;5219883;28;20683;-46
2023/05/28 08:01:33;;;;;;;2.47;1.43;;;34.80;18.60;;;;;;5215369;28;20183;-45
2023/05/28 08:04:04;;;;;;;3.10;2.43;;;33.30;20.10;;;;;;5218628;28;20181;-45
2023/05/28 08:06:35;;;;;;;6.43;2.50;;;32.50;20.00;;;;;;5219401;28;20433;-47
2023/05/28 08:09:05;;;;;;;2.60;1.77;;;32.10;20.60;;;;;;5217152;28;20214;-46
2023/05/28 08:11:36;;;;;;;1.70;1.60;;;32.80;21.10;;;;;;5223277;28;20265;-46
2023/05/28 08:14:06;;;;;;;2.63;2.30;;;33.90;19.70;;;;;;5219596;28;20548;-45
2023/05/28 08:16:37;;;;;;;3.80;1.93;;;33.20;19.80;;;;;;5224382;28;20179;-46
2023/05/28 08:19:08;;;;;;;3.47;1.57;;;32.30;20.40;;;;;;5225376;28;20837;-46
2023/05/28 08:21:38;;;;;;;6.20;2.33;;;32.80;20.60;;;;;;5224399;28;20193;-45
2023/05/28 08:24:10;;;;;;;1.90;1.80;;;32.90;20.40;;;;;;5219764;28;20187;-45
2023/05/28 08:26:41;;;;;;;4.50;2.20;;;32.30;20.80;;;;;;5222361;28;20193;-46
2023/05/28 08:29:11;;;;;;;2.23;2.13;;;31.50;20.90;;;;;;5219873;28;20460;-45
2023/05/28 08:31:42;;;;;;;1.97;1.87;;;31.10;21.80;;;;;;5221148;28;20179;-44
2023/05/28 08:34:13;;;;;;;2.10;1.80;;;30.20;21.70;;;;;;5218805;28;20233;-46
2023/05/28 08:36:43;;;;;;;4.13;1.70;;;29.90;22.20;;;;;;5215888;28;20207;-45
2023/05/28 08:39:14;;;;;;;3.40;2.07;;;29.40;22.80;;;;;;5221128;28;20260;-45
2023/05/28 08:41:45;;;;;;;5.87;2.23;;;28.50;23.50;;;;;;5220282;28;20266;-46
2023/05/28 08:44:15;;;;;;;4.17;2.93;;;28.20;23.80;;;;;;5213631;28;20190;-45
2023/05/28 08:46:46;;;;;;;2.23;2.13;;;27.50;24.10;;;;;;5216773;28;20194;-46
2023/05/28 08:49:18;;;;;;;5.87;2.27;;;27.00;24.90;;;;;;5217764;28;20211;-45
2023/05/28 08:51:50;;;;;;;2.67;2.00;;;25.90;25.30;;;;;;5214782;28;20433;-46
2023/05/28 08:54:21;;;;;;;3.33;1.90;;;25.00;26.50;;;;;;5219215;28;20913;-45
2023/05/28 08:56:53;;;;;;;6.67;2.03;;;24.40;27.50;;;;;;5219842;28;20491;-44
2023/05/28 08:59:27;;;;;;;3.13;1.97;;;24.10;28.20;;;;;;5218884;28;20275;-47
2023/05/28 09:01:57;;;;;;;2.53;1.73;;;23.80;28.40;;;;;;5216611;28;20438;-44
2023/05/28 09:04:28;;;;;;;7.70;2.00;;;23.40;28.50;;;;;;5219383;28;20468;-44
2023/05/28 09:06:59;;;;;;;4.43;1.40;;;23.10;28.40;;;;;;5219759;28;20183;-44
2023/05/28 09:09:29;;;;;;;3.73;2.43;;;23.00;28.60;;;;;;5220011;28;20720;-45
2023/05/28 09:12:05;;;;;;;7.83;2.03;;;23.10;29.30;;;;;;5217823;28;20245;-45
2023/05/28 09:14:41;;;;;;;4.60;1.80;;;22.80;28.70;;;;;;5217743;28;20175;-45
2023/05/28 09:17:13;;;;;;;4.83;2.20;;;22.50;29.40;;;;;;5215531;28;20483;-45
2023/05/28 09:19:54;;;;;;;3.97;2.13;;;22.40;29.20;;;;;;5217573;28;20464;-45
2023/05/28 09:22:24;;;;;;;1.87;1.77;;;22.20;29.20;;;;;;5218179;28;20433;-45
2023/05/28 09:24:55;;;;;;;1.90;1.80;;;22.00;29.10;;;;;;5216130;28;20947;-45
2023/05/28 09:27:27;;;;;;;1.67;1.57;;;21.90;29.40;;;;;;5220058;28;20188;-45
2023/05/28 09:30:03;;;;;;;2.80;2.37;;;21.80;29.70;;;;;;5222874;28;20468;-45
2023/05/28 09:32:35;;;;;;;3.63;2.13;;;21.70;29.90;;;;;;5219148;28;20465;-45
2023/05/28 09:35:07;;;;;;;1.60;1.53;;;21.50;30.00;;;;;;5226028;28;20441;-45
2023/05/28 09:37:39;;;;;;;1.87;1.70;;;21.50;30.40;;;;;;5225949;28;20445;-45
2023/05/28 09:40:10;;;;;;;2.60;2.07;;;21.80;30.30;;;;;;5218830;28;20464;-46
2023/05/28 09:42:43;;;;;;;2.30;2.03;;;21.90;29.70;;;;;;5225752;28;20426;-44
2023/05/28 09:45:25;;;;;;;2.60;1.80;;;21.80;29.60;;;;;;5216955;28;20191;-46
2023/05/28 09:47:55;;;;;;;2.47;2.27;;;21.90;28.80;;;;;;5220294;28;20426;-48
2023/05/28 09:50:27;;;;;;;2.33;2.13;;;21.80;28.90;;;;;;5223476;28;20838;-46
2023/05/28 09:52:59;;;;;;;4.13;1.87;;;21.80;29.00;;;;;;5216164;28;20539;-48
2023/05/28 09:55:32;;;;;;;4.17;2.53;;;21.80;29.60;;;;;;5220185;28;20499;-51
2023/05/28 09:58:05;;;;;;;5.33;1.83;;;21.60;29.90;;;;;;5215785;28;20437;-45
2023/05/28 10:00:40;;;;;;;4.03;2.27;;;21.40;30.00;;;;;;5222455;28;20775;-45
2023/05/28 10:03:21;;;;;;;4.60;2.33;;;21.30;30.20;;;;;;5223114;28;20428;-45
2023/05/28 10:05:56;;;;;;;4.63;2.20;;;21.20;30.20;;;;;;5218748;28;20437;-46
2023/05/28 10:08:27;;;;;;;5.70;4.10;;;21.20;30.40;;;;;;5221217;28;20457;-46
2023/05/28 10:10:58;;;;;;;3.67;2.10;;;21.30;30.50;;;;;;5218908;28;20437;-46
2023/05/28 10:13:31;;;;;;;2.80;1.90;;;21.60;30.40;;;;;;5222634;28;20434;-44
2023/05/28 10:16:01;;;;;;;6.27;2.60;;;21.60;30.60;;;;;;5218481;28;20179;-45
2023/05/28 10:18:33;;;;;;;3.80;2.20;;;21.60;30.80;;;;;;5223320;28;20996;-44
2023/05/28 10:21:06;;;;;;;2.40;2.20;;;21.80;31.30;;;;;;5219706;28;20659;-46
2023/05/28 10:23:38;;;;;;;2.27;1.93;;;21.80;30.50;;;;;;5215705;28;20865;-45
2023/05/28 10:26:09;;;;;;;2.50;2.30;;;21.70;30.40;;;;;;5216060;28;20543;-45
2023/05/28 10:28:40;;;;;;;1.47;1.37;;;21.60;31.20;;;;;;5212374;28;20470;-46
2023/05/28 10:31:11;;;;;;;2.20;1.63;;;21.80;30.70;;;;;;5217506;28;20409;-45
2023/05/28 10:33:43;;;;;;;5.20;3.23;;;21.90;30.50;;;;;;5217245;28;20425;-45
2023/05/28 10:36:15;;;;;;;2.90;2.40;;;21.90;30.60;;;;;;5221491;28;20195;-45
2023/05/28 10:38:58;;;;;;;3.90;1.60;;;21.90;29.90;;;;;;5213957;28;21227;-44
2023/05/28 10:41:32;;;;;;;1.83;1.73;;;21.90;30.30;;;;;;5213891;28;20494;-45
2023/05/28 10:44:07;;;;;;;1.60;1.60;;;21.90;29.90;;;;;;5221361;28;20445;-45
2023/05/28 10:46:39;;;;;;;4.63;2.50;;;21.80;29.80;;;;;;5219076;28;20483;-46
2023/05/28 10:49:15;;;;;;;2.03;1.80;;;21.60;29.60;;;;;;5217855;28;20465;-46
2023/05/28 10:51:56;;;;;;;4.40;1.73;;;21.60;30.00;;;;;;5222286;28;20413;-46
2023/05/28 10:54:30;;;;;;;2.97;1.70;;;21.50;31.10;;;;;;5219300;28;20451;-45
2023/05/28 10:57:11;;;;;;;2.40;1.70;;;21.50;30.00;;;;;;5217780;28;20458;-45
2023/05/28 10:59:58;;;;;;;2.10;1.90;;;21.60;30.30;;;;;;5214450;28;20522;-45
2023/05/28 11:02:33;;;;;;;7.53;1.47;;;21.50;29.90;;;;;;5217096;28;20530;-47
2023/05/28 11:05:05;;;;;;;2.30;2.20;;;21.60;29.90;;;;;;5215555;28;20473;-45
2023/05/28 11:07:38;;;;;;;2.63;2.43;;;21.70;29.90;;;;;;5216206;28;20949;-45
2023/05/28 11:10:10;;;;;;;2.87;1.87;;;21.80;29.80;;;;;;5214215;28;20508;-47
2023/05/28 11:12:42;;;;;;;6.73;2.23;;;21.90;29.80;;;;;;5222213;28;20505;-45
2023/05/28 11:15:13;;;;;;;3.87;1.70;;;21.90;29.70;;;;;;5223002;28;20433;-44
2023/05/28 11:17:46;;;;;;;1.87;1.57;;;21.90;29.20;;;;;;5218375;28;20455;-45
2023/05/28 11:20:26;;;;;;;3.03;2.03;;;21.70;29.70;;;;;;5219992;28;20465;-45
2023/05/28 11:22:57;;;;;;;4.27;2.30;;;21.50;30.00;;;;;;5221390;28;20453;-45
2023/05/28 11:25:27;;;;;;;4.10;1.73;;;21.60;30.30;;;;;;5216613;28;20568;-44
2023/05/28 11:28:00;;;;;;;2.90;1.33;;;21.60;30.40;;;;;;5220005;28;20191;-46
2023/05/28 11:30:30;;;;;;;1.50;1.50;;;21.70;30.00;;;;;;5215327;28;20556;-46
2023/05/28 11:33:02;;;;;;;2.77;1.60;;;21.70;30.00;;;;;;5218540;28;20531;-46
2023/05/28 11:35:33;;;;;;;4.30;2.97;;;21.80;30.50;;;;;;5219787;28;20188;-45
2023/05/28 11:38:04;;;;;;;1.77;1.60;;;21.80;30.00;;;;;;5214210;28;20927;-45
2023/05/28 11:40:35;;;;;;;2.43;2.03;;;22.00;30.10;;;;;;5219571;28;20225;-44
2023/05/28 11:43:06;;;;;;;5.33;1.77;;;22.10;30.00;;;;;;5223676;28;20422;-45
2023/05/28 11:45:37;;;;;;;6.00;1.60;;;22.20;29.60;;;;;;5224246;28;20758;-47
2023/05/28 11:48:12;;;;;;;6.30;2.00;;;22.20;29.40;;;;;;5223881;28;20289;-44
2023/05/28 11:50:44;;;;;;;4.83;1.63;;;22.20;29.20;;;;;;5224836;28;20530;-45
2023/05/28 11:53:14;;;;;;;1.73;1.70;;;22.10;29.10;;;;;;5223175;28;20461;-45
2023/05/28 11:55:45;;;;;;;2.50;1.90;;;22.10;29.50;;;;;;5221617;28;20496;-44
2023/05/28 11:58:16;;;;;;;2.57;1.67;;;22.20;29.40;;;;;;5227418;28;20198;-45
2023/05/28 12:00:55;;;;;;;2.53;1.77;;;22.20;29.00;;;;;;5221758;28;20187;-45
2023/05/28 12:03:26;;;;;;;2.00;1.77;;;22.30;28.20;;;;;;5224003;28;20532;-46
2023/05/28 12:05:57;;;;;;;2.00;1.90;;;22.20;27.90;;;;;;5222700;28;20509;-44
2023/05/28 12:08:27;;;;;;;2.00;1.90;;;22.10;27.80;;;;;;5216268;28;20553;-45
2023/05/28 12:11:02;;;;;;;2.00;1.87;;;21.90;28.00;;;;;;5222382;28;20655;-46
2023/05/28 12:13:34;;;;;;;3.23;2.30;;;22.00;28.20;;;;;;5220096;28;20181;-45
2023/05/28 12:16:10;;;;;;;4.07;2.00;;;22.20;28.40;;;;;;5224055;28;20445;-46
2023/05/28 12:18:41;;;;;;;1.57;1.47;;;22.20;28.70;;;;;;5218483;28;20511;-44
2023/05/28 12:21:18;;;;;;;4.77;1.67;;;22.30;28.30;;;;;;5217910;28;20982;-44
2023/05/28 12:23:49;;;;;;;2.27;2.07;;;22.30;28.90;;;;;;5220404;28;20433;-47
2023/05/28 12:26:19;;;;;;;6.17;2.30;;;22.40;29.20;;;;;;5214213;28;20438;-45
2023/05/28 12:28:50;;;;;;;1.93;1.80;;;22.40;28.60;;;;;;5217886;28;20261;-45
2023/05/28 12:31:28;;;;;;;1.77;1.67;;;22.40;29.50;;;;;;5221336;28;20191;-46
2023/05/28 12:33:59;;;;;;;3.83;2.10;;;22.30;29.30;;;;;;5222650;28;20190;-44
2023/05/28 12:36:30;;;;;;;2.50;1.90;;;22.40;29.50;;;;;;5220785;28;20436;-44
2023/05/28 12:39:01;;;;;;;3.80;1.50;;;22.50;29.60;;;;;;5225291;28;20202;-43
2023/05/28 12:41:32;;;;;;;1.67;1.57;;;22.50;29.40;;;;;;5222839;28;20243;-44
2023/05/28 12:44:02;;;;;;;2.27;2.10;;;22.50;29.60;;;;;;5221036;28;20575;-44
2023/05/28 12:46:33;;;;;;;4.50;1.57;;;22.50;29.90;;;;;;5227592;28;20178;-46
2023/05/28 12:49:04;;;;;;;5.27;2.10;;;22.50;29.80;;;;;;5222335;28;20233;-45
2023/05/28 12:51:36;;;;;;;1.73;1.63;;;22.50;29.60;;;;;;5223587;28;20175;-45
2023/05/28 12:54:06;;;;;;;2.30;1.83;;;22.60;29.80;;;;;;5221078;28;20171;-45
2023/05/28 12:56:37;;;;;;;2.13;1.67;;;22.60;29.60;;;;;;5216564;28;20949;-44
2023/05/28 12:59:20;;;;;;;3.80;2.30;;;22.70;29.70;;;;;;5217593;28;20277;-44
2023/05/28 13:01:50;;;;;;;3.17;1.80;;;22.70;29.50;;;;;;5228363;28;20651;-44
2023/05/28 13:04:22;;;;;;;4.30;1.67;;;22.80;29.20;;;;;;5220117;28;20543;-45
2023/05/28 13:06:53;;;;;;;2.20;2.07;;;22.80;29.00;;;;;;5222011;28;20184;-45